sensor_id;sensor_type;location;lat;lon;timestamp;pressure;altitude;pressure_sealevel;temperature;humidity
3178;BME280;38141;42.666;23.344;2024-03-07T00:01:23;94449.63;;;9.78;100.00
3178;BME280;38141;42.666;23.344;2024-03-07T00:03:52;94453.03;;;9.54;100.00
3178;BME280;38141;42.666;23.344;2024-03-07T00:06:19;94444.13;;;9.40;100.00
3178;BME280;38141;42.666;23.344;2024-03-07T00:08:46;94449.47;;;9.36;100.00
3178;BME280;38141;42.666;23.344;2024-03-07T00:11:14;94443.41;;;9.60;100.00
3178;BME280;38141;42.666;23.344;2024-03-07T00:13:41;94447.69;;;9.75;100.00
3178;BME280;38141;42.666;23.344;2024-03-07T00:16:08;94441.88;;;9.70;100.00
3178;BME280;38141;42.666;23.344;2024-03-07T00:18:38;94421.44;;;9.58;100.00
3178;BME280;38141;42.666;23.344;2024-03-07T00:21:06;94435.72;;;9.69;100.00
3178;BME280;38141;42.666;23.344;2024-03-07T00:23:34;94425.53;;;9.20;100.00
3178;BME280;38141;42.666;23.344;2024-03-07T00:26:01;94429.03;;;9.28;100.00
3178;BME280;38141;42.666;23.344;2024-03-07T00:28:28;94430.41;;;8.93;100.00
3178;BME280;38141;42.666;23.344;2024-03-07T00:30:58;94432.69;;;8.84;100.00
3178;BME280;38141;42.666;23.344;2024-03-07T00:33:25;94413.31;;;8.65;100.00
3178;BME280;38141;42.666;23.344;2024-03-07T00:35:53;94421.06;;;8.73;100.00
3178;BME280;38141;42.666;23.344;2024-03-07T00:38:20;94409.38;;;8.55;100.00
3178;BME280;38141;42.666;23.344;2024-03-07T00:40:47;94424.44;;;8.60;100.00
3178;BME280;38141;42.666;23.344;2024-03-07T00:43:14;94429.88;;;8.67;100.00
3178;BME280;38141;42.666;23.344;2024-03-07T00:45:41;94422.19;;;8.69;100.00
3178;BME280;38141;42.666;23.344;2024-03-07T00:50:25;94415.53;;;8.48;100.00
3178;BME280;38141;42.666;23.344;2024-03-07T00:52:53;94411.66;;;8.49;100.00
3178;BME280;38141;42.666;23.344;2024-03-07T00:55:20;94412.84;;;8.56;100.00
3178;BME280;38141;42.666;23.344;2024-03-07T00:57:48;94411.19;;;8.37;100.00
3178;BME280;38141;42.666;23.344;2024-03-07T01:00:15;94406.16;;;8.32;100.00
3178;BME280;38141;42.666;23.344;2024-03-07T01:02:47;94397.69;;;8.30;100.00
3178;BME280;38141;42.666;23.344;2024-03-07T01:05:14;94401.16;;;8.34;100.00
3178;BME280;38141;42.666;23.344;2024-03-07T01:07:44;94386.16;;;8.33;100.00
3178;BME280;38141;42.666;23.344;2024-03-07T01:10:12;94381.03;;;8.17;100.00
3178;BME280;38141;42.666;23.344;2024-03-07T01:12:39;94382.94;;;8.17;100.00
3178;BME280;38141;42.666;23.344;2024-03-07T01:15:07;94378.69;;;8.16;100.00
3178;BME280;38141;42.666;23.344;2024-03-07T01:17:34;94382.94;;;8.17;100.00
3178;BME280;38141;42.666;23.344;2024-03-07T01:20:01;94371.31;;;8.09;100.00
3178;BME280;38141;42.666;23.344;2024-03-07T01:22:28;94380.19;;;8.10;100.00
3178;BME280;38141;42.666;23.344;2024-03-07T01:25:14;94370.34;;;8.31;100.00
3178;BME280;38141;42.666;23.344;2024-03-07T01:27:42;94376.34;;;8.14;100.00
3178;BME280;38141;42.666;23.344;2024-03-07T01:30:10;94371.66;;;8.04;100.00
3178;BME280;38141;42.666;23.344;2024-03-07T01:32:37;94369.78;;;8.08;100.00
3178;BME280;38141;42.666;23.344;2024-03-07T01:35:05;94366.00;;;8.20;100.00
3178;BME280;38141;42.666;23.344;2024-03-07T01:37:33;94369.59;;;8.31;100.00
3178;BME280;38141;42.666;23.344;2024-03-07T01:40:00;94369.41;;;8.13;100.00
3178;BME280;38141;42.666;23.344;2024-03-07T01:42:32;94366.69;;;8.06;100.00
3178;BME280;38141;42.666;23.344;2024-03-07T01:44:59;94352.72;;;7.90;100.00
3178;BME280;38141;42.666;23.344;2024-03-07T01:47:26;94358.59;;;8.02;100.00
3178;BME280;38141;42.666;23.344;2024-03-07T01:49:53;94354.38;;;8.09;100.00
3178;BME280;38141;42.666;23.344;2024-03-07T01:52:20;94352.81;;;8.04;100.00
3178;BME280;38141;42.666;23.344;2024-03-07T01:54:48;94363.22;;;8.05;100.00
3178;BME280;38141;42.666;23.344;2024-03-07T01:57:16;94358.47;;;7.88;100.00
3178;BME280;38141;42.666;23.344;2024-03-07T01:59:45;94359.75;;;8.09;100.00
3178;BME280;38141;42.666;23.344;2024-03-07T02:02:16;94359.38;;;8.03;100.00
3178;BME280;38141;42.666;23.344;2024-03-07T02:04:43;94376.81;;;8.23;100.00
3178;BME280;38141;42.666;23.344;2024-03-07T02:07:10;94379.72;;;8.52;100.00
3178;BME280;38141;42.666;23.344;2024-03-07T02:09:37;94383.63;;;8.61;100.00
3178;BME280;38141;42.666;23.344;2024-03-07T02:12:05;94382.13;;;8.67;100.00
3178;BME280;38141;42.666;23.344;2024-03-07T02:14:34;94380.25;;;8.82;100.00
3178;BME280;38141;42.666;23.344;2024-03-07T02:17:03;94383.03;;;8.96;100.00
3178;BME280;38141;42.666;23.344;2024-03-07T02:19:30;94368.56;;;8.53;100.00
3178;BME280;38141;42.666;23.344;2024-03-07T02:21:59;94374.59;;;8.36;100.00
3178;BME280;38141;42.666;23.344;2024-03-07T02:24:26;94365.97;;;8.13;100.00
3178;BME280;38141;42.666;23.344;2024-03-07T02:26:53;94365.03;;;7.91;100.00
3178;BME280;38141;42.666;23.344;2024-03-07T02:29:20;94369.16;;;7.78;100.00
3178;BME280;38141;42.666;23.344;2024-03-07T02:31:47;94369.59;;;7.43;100.00
3178;BME280;38141;42.666;23.344;2024-03-07T02:34:14;94360.78;;;7.46;100.00
3178;BME280;38141;42.666;23.344;2024-03-07T02:36:42;94366.22;;;7.49;100.00
3178;BME280;38141;42.666;23.344;2024-03-07T02:39:10;94367.19;;;7.31;100.00
3178;BME280;38141;42.666;23.344;2024-03-07T02:41:37;94380.34;;;7.39;100.00
3178;BME280;38141;42.666;23.344;2024-03-07T02:44:04;94384.75;;;7.21;100.00
3178;BME280;38141;42.666;23.344;2024-03-07T02:46:31;94380.94;;;7.22;100.00
3178;BME280;38141;42.666;23.344;2024-03-07T02:48:59;94365.63;;;7.30;100.00
3178;BME280;38141;42.666;23.344;2024-03-07T02:51:26;94382.44;;;7.60;100.00
3178;BME280;38141;42.666;23.344;2024-03-07T02:53:53;94384.38;;;7.59;100.00
3178;BME280;38141;42.666;23.344;2024-03-07T02:56:21;94373.22;;;7.57;100.00
3178;BME280;38141;42.666;23.344;2024-03-07T02:58:48;94389.09;;;7.70;100.00
3178;BME280;38141;42.666;23.344;2024-03-07T03:01:15;94385.31;;;7.81;100.00
3178;BME280;38141;42.666;23.344;2024-03-07T03:03:42;94388.75;;;7.75;100.00
3178;BME280;38141;42.666;23.344;2024-03-07T03:06:09;94390.28;;;7.72;100.00
3178;BME280;38141;42.666;23.344;2024-03-07T03:08:36;94394.25;;;7.89;100.00
3178;BME280;38141;42.666;23.344;2024-03-07T03:11:04;94392.84;;;8.05;100.00
3178;BME280;38141;42.666;23.344;2024-03-07T03:13:37;94387.19;;;7.74;100.00
3178;BME280;38141;42.666;23.344;2024-03-07T03:16:04;94388.78;;;7.78;100.00
3178;BME280;38141;42.666;23.344;2024-03-07T03:18:32;94386.19;;;7.48;100.00
3178;BME280;38141;42.666;23.344;2024-03-07T03:20:59;94378.69;;;7.68;100.00
3178;BME280;38141;42.666;23.344;2024-03-07T03:23:26;94385.03;;;7.90;100.00
3178;BME280;38141;42.666;23.344;2024-03-07T03:25:53;94389.03;;;7.63;100.00
3178;BME280;38141;42.666;23.344;2024-03-07T03:28:21;94401.91;;;7.87;100.00
3178;BME280;38141;42.666;23.344;2024-03-07T03:30:49;94401.16;;;7.86;100.00
3178;BME280;38141;42.666;23.344;2024-03-07T03:33:17;94398.97;;;7.99;100.00
3178;BME280;38141;42.666;23.344;2024-03-07T03:35:44;94397.44;;;8.01;100.00
3178;BME280;38141;42.666;23.344;2024-03-07T03:38:11;94397.78;;;8.00;100.00
3178;BME280;38141;42.666;23.344;2024-03-07T03:40:38;94410.75;;;8.31;100.00
3178;BME280;38141;42.666;23.344;2024-03-07T03:43:05;94421.16;;;8.29;100.00
3178;BME280;38141;42.666;23.344;2024-03-07T03:45:33;94408.47;;;8.30;100.00
3178;BME280;38141;42.666;23.344;2024-03-07T03:48:01;94391.03;;;8.20;100.00
3178;BME280;38141;42.666;23.344;2024-03-07T03:50:28;94381.16;;;7.87;100.00
3178;BME280;38141;42.666;23.344;2024-03-07T03:52:56;94380.34;;;7.80;100.00
3178;BME280;38141;42.666;23.344;2024-03-07T03:55:23;94374.56;;;7.81;100.00
3178;BME280;38141;42.666;23.344;2024-03-07T03:57:50;94381.72;;;7.63;100.00
3178;BME280;38141;42.666;23.344;2024-03-07T04:00:18;94384.44;;;7.63;100.00
3178;BME280;38141;42.666;23.344;2024-03-07T04:02:48;94380.91;;;7.59;100.00
3178;BME280;38141;42.666;23.344;2024-03-07T04:05:18;94394.34;;;7.55;100.00
3178;BME280;38141;42.666;23.344;2024-03-07T04:07:45;94381.53;;;7.45;100.00
3178;BME280;38141;42.666;23.344;2024-03-07T04:10:14;94380.84;;;7.52;100.00
3178;BME280;38141;42.666;23.344;2024-03-07T04:12:42;94393.13;;;7.49;100.00
3178;BME280;38141;42.666;23.344;2024-03-07T04:15:11;94388.03;;;7.41;100.00
3178;BME280;38141;42.666;23.344;2024-03-07T04:17:39;94399.34;;;7.20;100.00
3178;BME280;38141;42.666;23.344;2024-03-07T04:20:07;94395.81;;;7.12;100.00
3178;BME280;38141;42.666;23.344;2024-03-07T04:22:37;94402.56;;;6.99;100.00
3178;BME280;38141;42.666;23.344;2024-03-07T04:25:06;94398.69;;;6.97;100.00
3178;BME280;38141;42.666;23.344;2024-03-07T04:27:33;94407.41;;;6.87;100.00
3178;BME280;38141;42.666;23.344;2024-03-07T04:30:02;94404.38;;;6.92;100.00
3178;BME280;38141;42.666;23.344;2024-03-07T04:32:30;94405.31;;;7.03;100.00
3178;BME280;38141;42.666;23.344;2024-03-07T04:34:58;94398.28;;;6.95;100.00
3178;BME280;38141;42.666;23.344;2024-03-07T04:37:26;94413.75;;;6.45;100.00
3178;BME280;38141;42.666;23.344;2024-03-07T04:39:55;94403.31;;;6.66;100.00
3178;BME280;38141;42.666;23.344;2024-03-07T04:42:22;94394.63;;;6.77;100.00
3178;BME280;38141;42.666;23.344;2024-03-07T04:44:49;94406.19;;;6.54;100.00
3178;BME280;38141;42.666;23.344;2024-03-07T04:47:17;94404.47;;;6.39;100.00
3178;BME280;38141;42.666;23.344;2024-03-07T04:49:44;94414.44;;;6.39;100.00
3178;BME280;38141;42.666;23.344;2024-03-07T04:52:11;94411.56;;;6.54;100.00
3178;BME280;38141;42.666;23.344;2024-03-07T04:54:38;94409.97;;;6.76;100.00
3178;BME280;38141;42.666;23.344;2024-03-07T04:57:07;94417.34;;;6.83;100.00
3178;BME280;38141;42.666;23.344;2024-03-07T04:59:34;94418.34;;;6.71;100.00
3178;BME280;38141;42.666;23.344;2024-03-07T05:02:01;94424.81;;;6.66;100.00
3178;BME280;38141;42.666;23.344;2024-03-07T05:05:01;94426.56;;;6.55;100.00
3178;BME280;38141;42.666;23.344;2024-03-07T05:07:28;94431.38;;;6.43;100.00
3178;BME280;38141;42.666;23.344;2024-03-07T05:09:55;94433.97;;;6.62;100.00
3178;BME280;38141;42.666;23.344;2024-03-07T05:12:22;94418.94;;;6.57;100.00
3178;BME280;38141;42.666;23.344;2024-03-07T05:14:49;94427.91;;;6.68;100.00
3178;BME280;38141;42.666;23.344;2024-03-07T05:17:16;94431.59;;;6.57;100.00
3178;BME280;38141;42.666;23.344;2024-03-07T05:19:45;94429.69;;;6.31;100.00
3178;BME280;38141;42.666;23.344;2024-03-07T05:22:14;94422.06;;;6.37;100.00
3178;BME280;38141;42.666;23.344;2024-03-07T05:24:43;94416.09;;;6.47;100.00
3178;BME280;38141;42.666;23.344;2024-03-07T05:27:11;94431.38;;;6.43;100.00
3178;BME280;38141;42.666;23.344;2024-03-07T05:29:38;94422.00;;;6.59;100.00
3178;BME280;38141;42.666;23.344;2024-03-07T05:32:20;94428.34;;;6.74;100.00
3178;BME280;38141;42.666;23.344;2024-03-07T05:34:48;94428.41;;;6.78;100.00
3178;BME280;38141;42.666;23.344;2024-03-07T05:37:16;94433.50;;;6.86;100.00
3178;BME280;38141;42.666;23.344;2024-03-07T05:39:43;94434.66;;;6.85;100.00
3178;BME280;38141;42.666;23.344;2024-03-07T05:42:10;94432.66;;;6.79;100.00
3178;BME280;38141;42.666;23.344;2024-03-07T05:44:39;94439.41;;;6.69;100.00
3178;BME280;38141;42.666;23.344;2024-03-07T05:47:07;94446.19;;;6.86;100.00
3178;BME280;38141;42.666;23.344;2024-03-07T05:49:37;94442.06;;;6.95;100.00
3178;BME280;38141;42.666;23.344;2024-03-07T05:52:04;94444.50;;;7.04;100.00
3178;BME280;38141;42.666;23.344;2024-03-07T05:54:34;94434.09;;;7.02;100.00
3178;BME280;38141;42.666;23.344;2024-03-07T05:57:01;94437.91;;;6.98;100.00
3178;BME280;38141;42.666;23.344;2024-03-07T05:59:28;94452.50;;;7.00;100.00
3178;BME280;38141;42.666;23.344;2024-03-07T06:01:56;94456.56;;;6.57;100.00
3178;BME280;38141;42.666;23.344;2024-03-07T06:04:23;94440.31;;;6.77;100.00
3178;BME280;38141;42.666;23.344;2024-03-07T06:06:50;94450.34;;;6.80;100.00
3178;BME280;38141;42.666;23.344;2024-03-07T06:09:17;94454.66;;;6.88;100.00
3178;BME280;38141;42.666;23.344;2024-03-07T06:11:48;94450.97;;;6.99;100.00
3178;BME280;38141;42.666;23.344;2024-03-07T06:14:16;94456.16;;;6.85;100.00
3178;BME280;38141;42.666;23.344;2024-03-07T06:16:43;94461.75;;;6.99;100.00
3178;BME280;38141;42.666;23.344;2024-03-07T06:19:10;94465.28;;;7.07;100.00
3178;BME280;38141;42.666;23.344;2024-03-07T06:21:39;94471.56;;;7.18;100.00
3178;BME280;38141;42.666;23.344;2024-03-07T06:24:06;94475.47;;;7.24;100.00
3178;BME280;38141;42.666;23.344;2024-03-07T06:26:35;94493.63;;;7.31;100.00
3178;BME280;38141;42.666;23.344;2024-03-07T06:29:15;94485.47;;;7.24;100.00
3178;BME280;38141;42.666;23.344;2024-03-07T06:31:42;94481.38;;;6.77;100.00
3178;BME280;38141;42.666;23.344;2024-03-07T06:34:11;94474.81;;;7.01;100.00
3178;BME280;38141;42.666;23.344;2024-03-07T06:36:39;94471.06;;;7.09;100.00
3178;BME280;38141;42.666;23.344;2024-03-07T06:39:07;94466.84;;;7.08;100.00
3178;BME280;38141;42.666;23.344;2024-03-07T06:41:35;94479.28;;;7.20;100.00
3178;BME280;38141;42.666;23.344;2024-03-07T06:44:03;94464.66;;;7.17;100.00
3178;BME280;38141;42.666;23.344;2024-03-07T06:46:31;94474.09;;;7.04;100.00
3178;BME280;38141;42.666;23.344;2024-03-07T06:48:59;94473.59;;;6.95;100.00
3178;BME280;38141;42.666;23.344;2024-03-07T06:51:26;94489.25;;;7.19;100.00
3178;BME280;38141;42.666;23.344;2024-03-07T06:53:54;94480.00;;;7.17;100.00
3178;BME280;38141;42.666;23.344;2024-03-07T06:56:21;94496.00;;;7.36;100.00
3178;BME280;38141;42.666;23.344;2024-03-07T06:58:49;94488.38;;;7.41;100.00
3178;BME280;38141;42.666;23.344;2024-03-07T07:01:16;94495.09;;;7.25;100.00
3178;BME280;38141;42.666;23.344;2024-03-07T07:03:46;94479.09;;;7.05;100.00
3178;BME280;38141;42.666;23.344;2024-03-07T07:06:14;94489.44;;;7.67;100.00
3178;BME280;38141;42.666;23.344;2024-03-07T07:08:41;94475.59;;;7.68;100.00
3178;BME280;38141;42.666;23.344;2024-03-07T07:11:09;94481.50;;;7.81;100.00
3178;BME280;38141;42.666;23.344;2024-03-07T07:13:36;94481.09;;;7.79;100.00
3178;BME280;38141;42.666;23.344;2024-03-07T07:16:04;94479.00;;;7.62;100.00
3178;BME280;38141;42.666;23.344;2024-03-07T07:18:31;94467.94;;;7.70;100.00
3178;BME280;38141;42.666;23.344;2024-03-07T07:21:00;94463.69;;;7.69;100.00
3178;BME280;38141;42.666;23.344;2024-03-07T07:23:28;94457.63;;;7.79;100.00
3178;BME280;38141;42.666;23.344;2024-03-07T07:25:55;94471.25;;;7.93;100.00
3178;BME280;38141;42.666;23.344;2024-03-07T07:28:22;94475.09;;;7.96;100.00
3178;BME280;38141;42.666;23.344;2024-03-07T07:30:49;94470.25;;;8.12;100.00
3178;BME280;38141;42.666;23.344;2024-03-07T07:33:16;94469.88;;;8.14;100.00
3178;BME280;38141;42.666;23.344;2024-03-07T07:35:43;94468.53;;;8.34;100.00
3178;BME280;38141;42.666;23.344;2024-03-07T07:38:12;94467.63;;;8.19;100.00
3178;BME280;38141;42.666;23.344;2024-03-07T07:40:40;94475.69;;;8.19;100.00
3178;BME280;38141;42.666;23.344;2024-03-07T07:43:07;94470.66;;;8.58;100.00
3178;BME280;38141;42.666;23.344;2024-03-07T07:45:34;94470.00;;;8.72;100.00
3178;BME280;38141;42.666;23.344;2024-03-07T07:48:02;94471.56;;;8.76;100.00
3178;BME280;38141;42.666;23.344;2024-03-07T07:50:29;94470.53;;;8.99;100.00
3178;BME280;38141;42.666;23.344;2024-03-07T07:52:58;94460.88;;;8.98;100.00
3178;BME280;38141;42.666;23.344;2024-03-07T07:55:28;94457.25;;;8.72;100.00
3178;BME280;38141;42.666;23.344;2024-03-07T07:57:57;94464.66;;;8.82;100.00
3178;BME280;38141;42.666;23.344;2024-03-07T08:00:25;94469.22;;;8.27;100.00
3178;BME280;38141;42.666;23.344;2024-03-07T08:02:56;94469.00;;;8.43;100.00
3178;BME280;38141;42.666;23.344;2024-03-07T08:05:24;94471.16;;;8.78;100.00
3178;BME280;38141;42.666;23.344;2024-03-07T08:07:54;94464.25;;;8.80;100.00
3178;BME280;38141;42.666;23.344;2024-03-07T08:10:24;94472.53;;;9.16;100.00
3178;BME280;38141;42.666;23.344;2024-03-07T08:12:55;94471.34;;;9.10;100.00
3178;BME280;38141;42.666;23.344;2024-03-07T08:15:24;94469.63;;;9.60;100.00
3178;BME280;38141;42.666;23.344;2024-03-07T08:17:52;94485.03;;;9.49;100.00
3178;BME280;38141;42.666;23.344;2024-03-07T08:20:21;94495.72;;;9.24;100.00
3178;BME280;38141;42.666;23.344;2024-03-07T08:22:49;94500.81;;;9.40;100.00
3178;BME280;38141;42.666;23.344;2024-03-07T08:25:20;94505.59;;;8.99;100.00
3178;BME280;38141;42.666;23.344;2024-03-07T08:27:49;94487.53;;;9.06;100.00
3178;BME280;38141;42.666;23.344;2024-03-07T08:30:18;94499.69;;;9.48;100.00
3178;BME280;38141;42.666;23.344;2024-03-07T08:32:46;94514.31;;;9.43;100.00
3178;BME280;38141;42.666;23.344;2024-03-07T08:35:13;94515.81;;;9.37;100.00
3178;BME280;38141;42.666;23.344;2024-03-07T08:37:42;94520.78;;;9.28;100.00
3178;BME280;38141;42.666;23.344;2024-03-07T08:40:11;94524.69;;;9.30;100.00
3178;BME280;38141;42.666;23.344;2024-03-07T08:42:45;94515.84;;;9.41;100.00
3178;BME280;38141;42.666;23.344;2024-03-07T08:45:13;94508.84;;;9.29;100.00
3178;BME280;38141;42.666;23.344;2024-03-07T08:47:44;94527.63;;;9.08;100.00
3178;BME280;38141;42.666;23.344;2024-03-07T08:50:12;94529.31;;;9.30;100.00
3178;BME280;38141;42.666;23.344;2024-03-07T08:52:39;94532.72;;;9.23;100.00
3178;BME280;38141;42.666;23.344;2024-03-07T08:55:07;94543.41;;;9.06;100.00
3178;BME280;38141;42.666;23.344;2024-03-07T08:57:36;94540.50;;;8.74;100.00
3178;BME280;38141;42.666;23.344;2024-03-07T09:00:03;94539.91;;;9.02;100.00
3178;BME280;38141;42.666;23.344;2024-03-07T09:02:33;94536.66;;;9.36;100.00
3178;BME280;38141;42.666;23.344;2024-03-07T09:05:02;94530.47;;;9.32;100.00
3178;BME280;38141;42.666;23.344;2024-03-07T09:07:29;94531.94;;;9.19;100.00
3178;BME280;38141;42.666;23.344;2024-03-07T09:09:56;94531.53;;;9.17;100.00
3178;BME280;38141;42.666;23.344;2024-03-07T09:12:24;94536.16;;;9.17;100.00
3178;BME280;38141;42.666;23.344;2024-03-07T09:14:54;94537.19;;;8.98;100.00
3178;BME280;38141;42.666;23.344;2024-03-07T09:17:22;94525.38;;;9.20;100.00
3178;BME280;38141;42.666;23.344;2024-03-07T09:19:49;94489.44;;;9.02;100.00
3178;BME280;38141;42.666;23.344;2024-03-07T09:22:18;94539.13;;;9.73;100.00
3178;BME280;38141;42.666;23.344;2024-03-07T09:24:45;94538.09;;;10.10;100.00
3178;BME280;38141;42.666;23.344;2024-03-07T09:27:12;94549.25;;;10.05;100.00
3178;BME280;38141;42.666;23.344;2024-03-07T09:29:40;94548.84;;;9.85;100.00
3178;BME280;38141;42.666;23.344;2024-03-07T09:32:08;94521.56;;;9.28;100.00
3178;BME280;38141;42.666;23.344;2024-03-07T09:34:36;94536.78;;;9.65;100.00
3178;BME280;38141;42.666;23.344;2024-03-07T09:37:03;94515.16;;;9.58;100.00
3178;BME280;38141;42.666;23.344;2024-03-07T09:39:34;94463.31;;;9.20;100.00
3178;BME280;38141;42.666;23.344;2024-03-07T09:42:04;94502.34;;;9.41;100.00
3178;BME280;38141;42.666;23.344;2024-03-07T09:44:36;94508.31;;;9.89;100.00
3178;BME280;38141;42.666;23.344;2024-03-07T09:47:05;94498.97;;;9.68;100.00
3178;BME280;38141;42.666;23.344;2024-03-07T09:49:33;94506.81;;;10.09;100.00
3178;BME280;38141;42.666;23.344;2024-03-07T09:52:03;94548.22;;;10.45;100.00
3178;BME280;38141;42.666;23.344;2024-03-07T09:54:31;94546.88;;;9.78;100.00
3178;BME280;38141;42.666;23.344;2024-03-07T09:57:02;94514.81;;;9.77;100.00
3178;BME280;38141;42.666;23.344;2024-03-07T09:59:36;94543.59;;;10.49;100.00
3178;BME280;38141;42.666;23.344;2024-03-07T10:02:05;94535.09;;;10.43;100.00
3178;BME280;38141;42.666;23.344;2024-03-07T10:04:43;94540.50;;;10.40;100.00
3178;BME280;38141;42.666;23.344;2024-03-07T10:07:11;94506.09;;;10.30;100.00
3178;BME280;38141;42.666;23.344;2024-03-07T10:09:39;94514.63;;;10.53;100.00
3178;BME280;38141;42.666;23.344;2024-03-07T10:12:09;94530.06;;;10.56;100.00
3178;BME280;38141;42.666;23.344;2024-03-07T10:14:38;94528.53;;;10.44;100.00
3178;BME280;38141;42.666;23.344;2024-03-07T10:17:05;94479.47;;;10.21;100.00
3178;BME280;38141;42.666;23.344;2024-03-07T10:19:40;94534.34;;;10.78;100.00
3178;BME280;38141;42.666;23.344;2024-03-07T10:22:08;94472.50;;;10.52;100.00
3178;BME280;38141;42.666;23.344;2024-03-07T10:24:35;94516.53;;;11.02;100.00
3178;BME280;38141;42.666;23.344;2024-03-07T10:27:04;94517.22;;;11.41;100.00
3178;BME280;38141;42.666;23.344;2024-03-07T10:29:33;94474.53;;;11.77;100.00
3178;BME280;38141;42.666;23.344;2024-03-07T10:32:11;94477.31;;;11.56;100.00
3178;BME280;38141;42.666;23.344;2024-03-07T10:34:41;94515.19;;;11.63;100.00
3178;BME280;38141;42.666;23.344;2024-03-07T10:37:12;94492.84;;;11.38;100.00
3178;BME280;38141;42.666;23.344;2024-03-07T10:39:43;94509.00;;;11.73;100.00
3178;BME280;38141;42.666;23.344;2024-03-07T10:42:14;94480.91;;;11.18;100.00
3178;BME280;38141;42.666;23.344;2024-03-07T10:44:45;94467.44;;;10.82;100.00
3178;BME280;38141;42.666;23.344;2024-03-07T10:47:16;94510.34;;;10.87;100.00
3178;BME280;38141;42.666;23.344;2024-03-07T10:50:02;94513.81;;;11.09;100.00
3178;BME280;38141;42.666;23.344;2024-03-07T10:52:46;94520.00;;;11.09;100.00
3178;BME280;38141;42.666;23.344;2024-03-07T10:55:24;94512.69;;;10.78;100.00
3178;BME280;38141;42.666;23.344;2024-03-07T10:58:02;94498.75;;;10.97;100.00
3178;BME280;38141;42.666;23.344;2024-03-07T11:00:34;94509.59;;;10.41;100.00
3178;BME280;38141;42.666;23.344;2024-03-07T11:03:05;94511.84;;;10.10;100.00
3178;BME280;38141;42.666;23.344;2024-03-07T11:05:37;94466.63;;;9.90;100.00
3178;BME280;38141;42.666;23.344;2024-03-07T11:08:05;94477.44;;;9.90;100.00
3178;BME280;38141;42.666;23.344;2024-03-07T11:10:38;94497.97;;;10.22;100.00
3178;BME280;38141;42.666;23.344;2024-03-07T11:13:07;94497.22;;;10.29;100.00
3178;BME280;38141;42.666;23.344;2024-03-07T11:15:44;94495.63;;;10.14;100.00
3178;BME280;38141;42.666;23.344;2024-03-07T11:18:13;94504.44;;;9.82;100.00
3178;BME280;38141;42.666;23.344;2024-03-07T11:20:41;94446.09;;;9.60;100.00
3178;BME280;38141;42.666;23.344;2024-03-07T11:23:27;94466.97;;;9.74;100.00
3178;BME280;38141;42.666;23.344;2024-03-07T11:26:01;94490.16;;;9.82;100.00
3178;BME280;38141;42.666;23.344;2024-03-07T11:28:33;94490.19;;;9.93;100.00
3178;BME280;38141;42.666;23.344;2024-03-07T11:31:14;94446.84;;;9.47;100.00
3178;BME280;38141;42.666;23.344;2024-03-07T11:33:42;94488.50;;;9.49;100.00
3178;BME280;38141;42.666;23.344;2024-03-07T11:36:43;94459.91;;;9.37;100.00
3178;BME280;38141;42.666;23.344;2024-03-07T11:42:20;94436.81;;;9.47;100.00
3178;BME280;38141;42.666;23.344;2024-03-07T11:44:49;94439.81;;;9.28;100.00
3178;BME280;38141;42.666;23.344;2024-03-07T11:47:18;94475.75;;;9.46;100.00
3178;BME280;38141;42.666;23.344;2024-03-07T11:49:45;94493.63;;;9.75;100.00
3178;BME280;38141;42.666;23.344;2024-03-07T11:52:15;94448.69;;;9.28;100.00
3178;BME280;38141;42.666;23.344;2024-03-07T11:54:42;94434.81;;;9.26;100.00
3178;BME280;38141;42.666;23.344;2024-03-07T11:57:14;94486.19;;;9.48;100.00
3178;BME280;38141;42.666;23.344;2024-03-07T11:59:45;94467.63;;;9.39;100.00
3178;BME280;38141;42.666;23.344;2024-03-07T12:02:19;94482.03;;;9.75;100.00
3178;BME280;38141;42.666;23.344;2024-03-07T12:04:48;94462.41;;;9.99;100.00
3178;BME280;38141;42.666;23.344;2024-03-07T12:07:15;94456.22;;;10.09;100.00
3178;BME280;38141;42.666;23.344;2024-03-07T12:09:44;94463.91;;;9.82;100.00
3178;BME280;38141;42.666;23.344;2024-03-07T12:12:16;94424.09;;;9.51;100.00
3178;BME280;38141;42.666;23.344;2024-03-07T12:14:50;94435.75;;;9.83;100.00
3178;BME280;38141;42.666;23.344;2024-03-07T12:17:20;94458.16;;;10.09;100.00
3178;BME280;38141;42.666;23.344;2024-03-07T12:19:48;94446.56;;;9.80;100.00
3178;BME280;38141;42.666;23.344;2024-03-07T12:22:19;94432.59;;;9.60;100.00
3178;BME280;38141;42.666;23.344;2024-03-07T12:25:01;94446.88;;;9.68;100.00
3178;BME280;38141;42.666;23.344;2024-03-07T12:27:29;94440.97;;;9.27;100.00
3178;BME280;38141;42.666;23.344;2024-03-07T12:30:14;94453.38;;;9.42;100.00
3178;BME280;38141;42.666;23.344;2024-03-07T12:32:48;94441.31;;;9.18;100.00
3178;BME280;38141;42.666;23.344;2024-03-07T12:35:18;94462.97;;;9.25;100.00
3178;BME280;38141;42.666;23.344;2024-03-07T12:37:46;94471.53;;;9.49;100.00
3178;BME280;38141;42.666;23.344;2024-03-07T12:40:15;94461.88;;;9.48;100.00
3178;BME280;38141;42.666;23.344;2024-03-07T12:42:46;94437.94;;;9.35;100.00
3178;BME280;38141;42.666;23.344;2024-03-07T12:45:16;94461.13;;;9.54;100.00
3178;BME280;38141;42.666;23.344;2024-03-07T12:47:47;94433.69;;;9.34;100.00
3178;BME280;38141;42.666;23.344;2024-03-07T12:50:18;94427.16;;;9.43;100.00
3178;BME280;38141;42.666;23.344;2024-03-07T12:52:46;94462.41;;;10.06;100.00
3178;BME280;38141;42.666;23.344;2024-03-07T12:55:15;94468.53;;;9.75;100.00
3178;BME280;38141;42.666;23.344;2024-03-07T12:57:47;94454.19;;;9.53;100.00
3178;BME280;38141;42.666;23.344;2024-03-07T13:00:16;94438.34;;;9.45;100.00
3178;BME280;38141;42.666;23.344;2024-03-07T13:02:50;94450.72;;;9.63;100.00
3178;BME280;38141;42.666;23.344;2024-03-07T13:05:23;94445.34;;;9.63;100.00
3178;BME280;38141;42.666;23.344;2024-03-07T13:07:51;94452.59;;;9.45;100.00
3178;BME280;38141;42.666;23.344;2024-03-07T13:10:21;94409.75;;;9.29;100.00
3178;BME280;38141;42.666;23.344;2024-03-07T13:12:49;94443.00;;;9.51;100.00
3178;BME280;38141;42.666;23.344;2024-03-07T13:15:18;94410.16;;;9.35;100.00